Main page
METAR-TAF:

METAR-TAF

Airports :

Greater Cumberland Regional Airport

Cumberland, Maryland, United States

latitude: 39-36-56N, longitude: 078-45-39W, elevation: 774 ft

Current weather observation

The report was made 33 minutes ago, at 21:40 UTC
Wind 14 mph from the North/Northwest with gusts up to 22 mph
Temperature 52°F
Humidity 62%
Pressure 29.87 in. Hg
Visibility: 10 miles
Scattered clouds at a height of 7000 ft
Overcast at a height of 8500 ft

METAR: KCBE 012140Z AUTO 33012G19KT 10SM SCT070 OVC085 11/04 A2987 RMK AO2 T01090036

Time: 18:13 (22:13 UTC)


TAF: missing

Weather observations and forecasts of more than 4000 airports (METAR and TAF reports).

The available stations are represented by yellow and red dots on the map.

Hover mouse over dot to see the name of the station.

Then click to see weather observations and forecasts.

To change the map : click on the green buttons with a black cross to zoom in, on the green button with a dash to zoom out, or on the green arrows for adjacent maps.


METAR-TAF: